首页
METAR-TAF:

METAR-TAF

机场 :

曼哈頓, 堪薩斯州, 美国

纬度: 39-08-07N, 经度: 096-40-40W, 海拔: 321米

当前天气观测

该预报发布于41分钟前的20:52 UTC
风速5节,风向西北
温度 25°C
湿度 57%
气压 1007 hPa
能見度: 16.1公里
多云层高于6500英尺

METAR: KMHK 192052Z 32005KT 10SM BKN065 25/16 A2975 RMK AO2 SLP065 T02500156 56012

时间: 16:33 (21:33 UTC)

预报

该预报发布于4小时和5分钟前的17:28 UTC
预报有效从19日的 18点(UTC)到 20日的 18点(UTC)
风速5节,风向
能見度: 10公里
多云层高于3500英尺
从 19日的 2100点(UTC)
风速5节,风向
能見度: 10公里
散云层高于5000英尺
从 20日的 1400点(UTC)
风速8节,风向
能見度: 10公里
少量云层高于25000英尺

TAF: KMHK 191728Z 1918/2018 01005KT P6SM BKN035 FM192100 35005KT P6SM SCT050 FM201400 19008KT P6SM FEW250

超过4000个机场的气象观测和天气预报(METAR&TAF报告)。

可查询的气象台以黄色和红色小点在地图上表示。

将鼠标移到小点上方,可查看气象台名称。

然后点击查看天气观测和预报。

如需切换地图:点击带黑十字的绿色按钮放大地图;点击带横线的绿色按钮缩小地图;或者点击绿色箭头查看邻近地区的地图。


METAR-TAF: